createdAt,value
2018-07-11T00:00:18.819Z,1006.72
2018-07-11T00:01:30.910Z,1006.73
2018-07-11T00:02:39.509Z,1006.73
2018-07-11T00:03:34.810Z,1006.68
2018-07-11T00:04:40.757Z,1006.70
2018-07-11T00:05:51.103Z,1006.74
2018-07-11T00:06:49.779Z,1006.72
2018-07-11T00:08:02.690Z,1006.72
2018-07-11T00:09:07.612Z,1006.72
2018-07-11T00:10:11.816Z,1006.70
2018-07-11T00:11:18.684Z,1006.72
2018-07-11T00:12:18.493Z,1006.73
2018-07-11T00:13:22.896Z,1006.69
2018-07-11T00:17:49.654Z,1006.74
2018-07-11T00:19:03.788Z,1006.71
2018-07-11T00:19:58.470Z,1006.68
2018-07-11T00:21:12.515Z,1006.73
2018-07-11T00:22:27.770Z,1006.71
2018-07-11T00:23:16.724Z,1006.69
2018-07-11T00:24:17.646Z,1006.72
2018-07-11T00:25:24.207Z,1006.73
2018-07-11T00:26:31.894Z,1006.73
2018-07-11T00:27:39.891Z,1006.71
2018-07-11T00:28:43.785Z,1006.74
2018-07-11T00:29:43.689Z,1006.75
2018-07-11T00:30:54.142Z,1006.76
2018-07-11T00:32:01.830Z,1006.77
2018-07-11T00:33:07.058Z,1006.80
2018-07-11T00:34:15.563Z,1006.76
2018-07-11T00:36:18.546Z,1006.80
2018-07-11T00:37:33.141Z,1006.82
2018-07-11T00:38:41.908Z,1006.80
2018-07-11T00:39:38.023Z,1006.83
2018-07-11T00:40:47.552Z,1006.79
2018-07-11T00:41:54.322Z,1006.80
2018-07-11T00:42:51.867Z,1006.82
2018-07-11T00:45:06.935Z,1006.81
2018-07-11T00:46:13.904Z,1006.81
2018-07-11T00:49:24.882Z,1006.78
2018-07-11T00:50:32.772Z,1006.76
2018-07-11T00:51:45.478Z,1006.75
2018-07-11T00:52:45.689Z,1006.73
2018-07-11T00:53:46.209Z,1006.70
2018-07-11T00:55:05.781Z,1006.77
2018-07-11T00:56:17.659Z,1006.74
2018-07-11T00:58:05.696Z,1006.80
2018-07-11T00:59:17.781Z,1006.82
2018-07-11T01:00:24.649Z,1006.83
2018-07-11T01:01:34.488Z,1006.85
2018-07-11T01:02:44.021Z,1006.84
2018-07-11T01:03:33.889Z,1006.86
2018-07-11T01:04:47.512Z,1006.84
2018-07-11T01:05:48.747Z,1006.85
2018-07-11T01:06:55.514Z,1006.82
2018-07-11T01:08:03.815Z,1006.83
2018-07-11T01:09:10.375Z,1006.86
2018-07-11T01:10:21.440Z,1006.86
2018-07-11T01:11:22.372Z,1006.85
2018-07-11T01:12:28.420Z,1006.84
2018-07-11T01:13:27.197Z,1006.84
2018-07-11T01:14:43.998Z,1006.89
2018-07-11T01:15:42.978Z,1006.90
2018-07-11T01:16:52.613Z,1006.87
2018-07-11T01:17:44.324Z,1006.87
2018-07-11T01:18:59.076Z,1006.87
2018-07-11T01:20:15.569Z,1006.84
2018-07-11T01:21:14.453Z,1006.81
2018-07-11T01:22:15.787Z,1006.84
2018-07-11T01:23:18.559Z,1006.83
2018-07-11T01:26:31.279Z,1006.76
2018-07-11T01:27:49.415Z,1006.83
2018-07-11T01:28:46.036Z,1006.77
2018-07-11T01:30:00.382Z,1006.79
2018-07-11T01:31:05.199Z,1006.80
2018-07-11T01:32:04.181Z,1006.76
2018-07-11T01:33:08.284Z,1006.73
2018-07-11T01:35:28.266Z,1006.77
2018-07-11T01:36:31.859Z,1006.79
2018-07-11T01:37:29.714Z,1006.79
2018-07-11T01:38:42.830Z,1006.86
2018-07-11T01:39:41.093Z,1006.88
2018-07-11T01:40:49.702Z,1006.90
2018-07-11T01:41:48.377Z,1006.92
2018-07-11T01:43:00.578Z,1006.91
2018-07-11T01:46:19.739Z,1006.91
2018-07-11T01:47:15.650Z,1006.94
2018-07-11T01:48:25.489Z,1006.94
2018-07-11T01:49:43.721Z,1006.89
2018-07-11T01:50:42.704Z,1006.88
2018-07-11T01:51:43.633Z,1006.90
2018-07-11T01:53:50.814Z,1006.87
2018-07-11T01:55:00.449Z,1006.82
2018-07-11T01:56:05.470Z,1006.87
2018-07-11T01:57:11.417Z,1006.89
2018-07-11T01:58:17.362Z,1006.90
2018-07-11T02:00:34.170Z,1006.88
2018-07-11T02:01:34.689Z,1006.90
2018-07-11T02:05:02.563Z,1006.87
2018-07-11T02:05:54.479Z,1006.91
2018-07-11T02:07:04.418Z,1006.90
2018-07-11T02:08:04.221Z,1006.90
2018-07-11T02:09:06.276Z,1006.90
2018-07-11T02:10:20.214Z,1006.89
2018-07-11T02:11:16.837Z,1006.86
2018-07-11T02:12:26.471Z,1006.88
2018-07-11T02:13:30.982Z,1006.88
2018-07-11T02:14:41.946Z,1006.86
2018-07-11T02:15:57.318Z,1006.79
2018-07-11T02:16:50.254Z,1006.80
2018-07-11T02:17:54.972Z,1006.83
2018-07-11T02:19:14.028Z,1006.86
2018-07-11T02:20:02.869Z,1006.85
2018-07-11T02:21:09.942Z,1006.88
2018-07-11T02:22:14.967Z,1006.84
2018-07-11T02:24:29.009Z,1006.89
2018-07-11T02:25:33.009Z,1006.88
2018-07-11T02:26:42.745Z,1006.90
2018-07-11T02:27:41.111Z,1006.88
2018-07-11T02:28:57.080Z,1006.88
2018-07-11T02:30:02.119Z,1006.85
2018-07-11T02:31:07.142Z,1006.84
2018-07-11T02:32:04.283Z,1006.79
2018-07-11T02:33:18.625Z,1006.80
2018-07-11T02:34:21.499Z,1006.78
2018-07-11T02:36:27.555Z,1006.80
2018-07-11T02:37:38.621Z,1006.84
2018-07-11T02:38:44.873Z,1006.81
2018-07-11T02:39:57.579Z,1006.79
2018-07-11T02:40:52.159Z,1006.84
2018-07-11T02:41:53.395Z,1006.82
2018-07-11T02:43:03.333Z,1006.76
2018-07-11T02:44:07.846Z,1006.77
2018-07-11T02:45:26.387Z,1006.77
2018-07-11T02:46:24.251Z,1006.75
2018-07-11T02:47:32.547Z,1006.78
2018-07-11T02:48:26.714Z,1006.78
2018-07-11T02:49:31.637Z,1006.76
2018-07-11T02:50:46.292Z,1006.77
2018-07-11T02:51:47.317Z,1006.79
2018-07-11T02:52:51.011Z,1006.78
2018-07-11T02:55:29.085Z,1006.80
2018-07-11T02:56:11.920Z,1006.84
2018-07-11T02:58:27.399Z,1006.79
2018-07-11T02:59:39.386Z,1006.78
2018-07-11T03:00:30.071Z,1006.79
2018-07-11T03:01:49.535Z,1006.79
2018-07-11T03:02:42.886Z,1006.79
2018-07-11T03:04:01.940Z,1006.74
2018-07-11T03:05:07.477Z,1006.78
2018-07-11T03:06:07.995Z,1006.78
2018-07-11T03:07:03.393Z,1006.81
2018-07-11T03:09:07.605Z,1006.82
2018-07-11T03:11:23.607Z,1006.83
2018-07-11T03:12:29.540Z,1006.86
2018-07-11T03:13:46.655Z,1006.89
2018-07-11T03:14:39.792Z,1006.92
2018-07-11T03:15:54.442Z,1006.91
2018-07-11T03:16:58.648Z,1006.91
2018-07-11T03:17:54.097Z,1006.89
2018-07-11T03:19:04.397Z,1006.87
2018-07-11T03:20:08.737Z,1006.91
2018-07-11T03:21:09.325Z,1006.89
2018-07-11T03:22:16.298Z,1006.91
2018-07-11T03:23:34.327Z,1006.90
2018-07-11T03:24:35.253Z,1006.95
2018-07-11T03:25:36.181Z,1006.95
2018-07-11T03:26:44.175Z,1006.98
2018-07-11T03:27:50.941Z,1006.97
2018-07-11T03:31:10.211Z,1007.01
2018-07-11T03:32:16.260Z,1006.99
2018-07-11T03:33:16.574Z,1007.00
2018-07-11T03:34:14.329Z,1006.97
2018-07-11T03:35:32.255Z,1006.92
2018-07-11T03:37:48.962Z,1006.94
2018-07-11T03:38:42.107Z,1006.93
2018-07-11T03:39:50.918Z,1006.94
2018-07-11T03:40:59.222Z,1006.90
2018-07-11T03:41:59.844Z,1006.94
2018-07-11T03:42:58.935Z,1006.93
2018-07-11T03:44:08.768Z,1006.94
2018-07-11T03:45:22.745Z,1006.99
2018-07-11T03:46:19.124Z,1007.03
2018-07-11T03:47:26.704Z,1007.08
2018-07-11T03:48:36.239Z,1007.09
2018-07-11T03:49:36.446Z,1007.13
2018-07-11T03:50:38.707Z,1007.09
2018-07-11T03:52:47.730Z,1007.09
2018-07-11T03:54:06.270Z,1007.06
2018-07-11T03:55:08.749Z,1007.07
2018-07-11T03:57:10.089Z,1007.09
2018-07-11T03:58:28.725Z,1007.06
2018-07-11T03:59:33.753Z,1007.05
2018-07-11T04:00:27.920Z,1007.06
2018-07-11T04:01:34.889Z,1007.07
2018-07-11T04:02:39.123Z,1007.06
2018-07-11T04:03:49.650Z,1007.07
2018-07-11T04:04:56.695Z,1007.09
2018-07-11T04:05:56.421Z,1007.10
2018-07-11T04:07:18.240Z,1007.11
2018-07-11T04:08:07.289Z,1007.12
2018-07-11T04:09:18.457Z,1007.15
2018-07-11T04:12:34.452Z,1007.12
2018-07-11T04:13:48.487Z,1007.18
2018-07-11T04:14:46.448Z,1007.14
2018-07-11T04:15:58.754Z,1007.14
2018-07-11T04:16:54.243Z,1007.14
2018-07-11T04:19:08.963Z,1007.19
2018-07-11T04:20:15.051Z,1007.13
2018-07-11T04:21:14.135Z,1007.16
2018-07-11T04:22:26.226Z,1007.16
2018-07-11T04:23:23.365Z,1007.18
2018-07-11T04:24:48.657Z,1007.16
2018-07-11T04:26:41.100Z,1007.18
2018-07-11T04:27:43.873Z,1007.15
2018-07-11T04:28:59.853Z,1007.18
2018-07-11T04:29:59.040Z,1007.15
2018-07-11T04:31:05.909Z,1007.14
2018-07-11T04:32:08.168Z,1007.16
2018-07-11T04:34:25.287Z,1007.13
2018-07-11T04:35:23.764Z,1007.13
2018-07-11T04:36:40.144Z,1007.11
2018-07-11T04:37:39.537Z,1007.15
2018-07-11T04:38:47.122Z,1007.13
2018-07-11T04:39:48.664Z,1007.13
2018-07-11T04:40:53.791Z,1007.14
2018-07-11T04:41:59.123Z,1007.15
2018-07-11T04:43:02.715Z,1007.12
2018-07-11T04:44:12.763Z,1007.10
2018-07-11T04:45:15.939Z,1007.09
2018-07-11T04:46:21.166Z,1007.12
2018-07-11T04:47:25.578Z,1007.11
2018-07-11T04:48:34.088Z,1007.07
2018-07-11T04:49:41.669Z,1007.07
2018-07-11T04:50:44.749Z,1007.07
2018-07-11T04:52:57.968Z,1007.08
2018-07-11T04:54:02.891Z,1007.07
2018-07-11T04:55:11.603Z,1007.10
2018-07-11T04:57:13.730Z,1007.13
2018-07-11T04:58:18.380Z,1007.17
2018-07-11T04:59:29.349Z,1007.13
2018-07-11T05:00:41.436Z,1007.13
2018-07-11T05:01:44.309Z,1007.16
2018-07-11T05:02:45.240Z,1007.21
2018-07-11T05:04:55.184Z,1007.17
2018-07-11T05:06:00.309Z,1007.16
2018-07-11T05:07:16.805Z,1007.16
2018-07-11T05:08:10.154Z,1007.18
2018-07-11T05:09:17.244Z,1007.18
2018-07-11T05:10:28.500Z,1007.20
2018-07-11T05:11:42.329Z,1007.18
2018-07-11T05:12:38.136Z,1007.17
2018-07-11T05:13:39.986Z,1007.16
2018-07-11T05:14:45.114Z,1007.21
2018-07-11T05:15:58.125Z,1007.16
2018-07-11T05:18:04.795Z,1007.15
2018-07-11T05:20:11.157Z,1007.18
2018-07-11T05:25:40.170Z,1007.14
2018-07-11T05:26:42.225Z,1007.15
2018-07-11T05:27:56.263Z,1007.15
2018-07-11T05:28:58.151Z,1007.14
2018-07-11T05:30:05.287Z,1007.15
2018-07-11T05:31:01.916Z,1007.14
2018-07-11T05:32:17.690Z,1007.15
2018-07-11T05:33:18.107Z,1007.10
2018-07-11T05:34:24.160Z,1007.16
2018-07-11T05:36:33.999Z,1007.23
2018-07-11T05:37:35.132Z,1007.24
2018-07-11T05:42:05.166Z,1007.20
2018-07-11T05:43:13.670Z,1007.19
2018-07-11T05:44:15.928Z,1007.17
2018-07-11T05:45:22.611Z,1007.19
2018-07-11T05:46:22.781Z,1007.16
2018-07-11T05:47:36.430Z,1007.15
2018-07-11T05:48:45.242Z,1007.15
2018-07-11T05:49:57.537Z,1007.18
2018-07-11T05:50:48.228Z,1007.15
2018-07-11T05:52:07.310Z,1007.08
2018-07-11T05:53:13.125Z,1007.10
2018-07-11T05:54:04.734Z,1007.11
2018-07-11T05:55:14.470Z,1007.08
2018-07-11T05:56:31.371Z,1007.14
2018-07-11T05:57:25.439Z,1007.13
2018-07-11T05:58:27.293Z,1007.14
2018-07-11T05:59:36.818Z,1007.20
2018-07-11T06:00:37.336Z,1007.18
2018-07-11T06:01:42.159Z,1007.22
2018-07-11T06:02:58.547Z,1007.31
2018-07-11T06:03:55.688Z,1007.34
2018-07-11T06:05:08.189Z,1007.32
2018-07-11T06:06:00.793Z,1007.33
2018-07-11T06:07:10.560Z,1007.34
2018-07-11T06:08:32.271Z,1007.36
2018-07-11T06:09:17.737Z,1007.41
2018-07-11T06:10:34.741Z,1007.42
2018-07-11T06:11:35.876Z,1007.46
2018-07-11T06:12:41.923Z,1007.49
2018-07-11T06:13:42.527Z,1007.46
2018-07-11T06:14:50.538Z,1007.50
2018-07-11T06:15:54.029Z,1007.49
2018-07-11T06:17:15.642Z,1007.49
2018-07-11T06:18:06.234Z,1007.51
2018-07-11T06:19:07.667Z,1007.51
2018-07-11T06:20:27.337Z,1007.52
2018-07-11T06:22:30.728Z,1007.51
2018-07-11T06:23:34.525Z,1007.50
2018-07-11T06:24:34.531Z,1007.56
2018-07-11T06:25:48.669Z,1007.56
2018-07-11T06:28:02.013Z,1007.52
2018-07-11T06:29:02.307Z,1007.52
2018-07-11T06:30:11.942Z,1007.49
2018-07-11T06:31:26.590Z,1007.47
2018-07-11T06:32:19.735Z,1007.43
2018-07-11T06:33:24.162Z,1007.47
2018-07-11T06:34:39.683Z,1007.49
2018-07-11T06:35:33.989Z,1007.50
2018-07-11T06:36:42.597Z,1007.48
2018-07-11T06:37:56.693Z,1007.47
2018-07-11T06:38:50.810Z,1007.48
2018-07-11T06:39:52.347Z,1007.49
2018-07-11T06:42:07.517Z,1007.49
2018-07-11T06:43:28.312Z,1007.52
2018-07-11T06:44:17.157Z,1007.51
2018-07-11T06:45:20.799Z,1007.55
2018-07-11T06:46:31.405Z,1007.54
2018-07-11T06:48:46.675Z,1007.57
2018-07-11T06:49:47.502Z,1007.60
2018-07-11T06:50:56.825Z,1007.64
2018-07-11T06:52:03.509Z,1007.60
2018-07-11T06:53:13.803Z,1007.61
2018-07-11T06:54:07.190Z,1007.59
2018-07-11T06:56:23.791Z,1007.60
2018-07-11T06:58:36.803Z,1007.58
2018-07-11T06:59:43.370Z,1007.58
2018-07-11T07:01:00.478Z,1007.52
2018-07-11T07:01:51.678Z,1007.56
2018-07-11T07:03:59.165Z,1007.54
2018-07-11T07:05:07.262Z,1007.49
2018-07-11T07:06:17.808Z,1007.48
2018-07-11T07:07:16.197Z,1007.49
2018-07-11T07:08:31.247Z,1007.46
2018-07-11T07:09:45.181Z,1007.52
2018-07-11T07:10:43.809Z,1007.54
2018-07-11T07:13:00.263Z,1007.51
2018-07-11T07:14:54.742Z,1007.53
2018-07-11T07:16:11.746Z,1007.57
2018-07-11T07:18:45.855Z,1007.57
2018-07-11T07:19:24.810Z,1007.58
2018-07-11T07:20:29.593Z,1007.61
2018-07-11T07:21:38.202Z,1007.61
2018-07-11T07:26:07.200Z,1007.61
2018-07-11T07:27:07.208Z,1007.60
2018-07-11T07:28:34.814Z,1007.58
2018-07-11T07:29:30.262Z,1007.56
2018-07-11T07:30:15.318Z,1007.54
2018-07-11T07:32:27.815Z,1007.54
2018-07-11T07:33:47.289Z,1007.53
2018-07-11T07:35:48.324Z,1007.50
2018-07-11T07:36:59.289Z,1007.50
2018-07-11T07:38:28.787Z,1007.51
2018-07-11T07:40:34.642Z,1007.48
2018-07-11T07:41:34.030Z,1007.50
2018-07-11T07:42:26.970Z,1007.49
2018-07-11T07:43:28.817Z,1007.49
2018-07-11T07:44:31.798Z,1007.49
2018-07-11T07:45:35.286Z,1007.48
2018-07-11T07:46:55.239Z,1007.46
2018-07-11T07:48:05.916Z,1007.48
2018-07-11T07:49:01.827Z,1007.48
2018-07-11T07:49:51.901Z,1007.49
2018-07-11T07:50:56.824Z,1007.48
2018-07-11T07:53:11.070Z,1007.42
2018-07-11T07:54:15.379Z,1007.42
2018-07-11T07:57:31.480Z,1007.38
2018-07-11T07:58:39.821Z,1007.38
2018-07-11T07:59:50.945Z,1007.40
2018-07-11T08:00:59.822Z,1007.44
2018-07-11T08:01:55.474Z,1007.45
2018-07-11T08:02:59.681Z,1007.44
2018-07-11T08:04:15.139Z,1007.41
2018-07-11T08:05:07.568Z,1007.41
2018-07-11T08:06:10.749Z,1007.45
2018-07-11T08:07:22.825Z,1007.41
2018-07-11T08:08:23.358Z,1007.40
2018-07-11T08:09:35.859Z,1007.40
2018-07-11T08:11:40.580Z,1007.39
2018-07-11T08:12:50.827Z,1007.40
2018-07-11T08:17:10.108Z,1007.40
2018-07-11T08:18:13.083Z,1007.42
2018-07-11T08:19:16.474Z,1007.41
2018-07-11T08:21:39.327Z,1007.42
2018-07-11T08:22:36.767Z,1007.46
2018-07-11T08:23:56.646Z,1007.46
2018-07-11T08:25:50.815Z,1007.42
2018-07-11T08:27:00.873Z,1007.45
2018-07-11T08:28:06.188Z,1007.48
2018-07-11T08:30:28.737Z,1007.44
2018-07-11T08:31:26.177Z,1007.44
2018-07-11T08:32:37.656Z,1007.44
2018-07-11T08:34:36.468Z,1007.46
2018-07-11T08:35:44.988Z,1007.44
2018-07-11T08:36:53.833Z,1007.43
2018-07-11T08:38:06.461Z,1007.41
2018-07-11T08:39:00.946Z,1007.45
2018-07-11T08:40:12.927Z,1007.42
2018-07-11T08:41:17.967Z,1007.45
2018-07-11T08:42:20.415Z,1007.39
2018-07-11T08:47:46.162Z,1007.36
2018-07-11T08:48:55.376Z,1007.33
2018-07-11T08:50:03.837Z,1007.31
2018-07-11T08:51:05.424Z,1007.33
2018-07-11T08:52:10.836Z,1007.36
2018-07-11T08:54:14.556Z,1007.35
2018-07-11T08:56:24.855Z,1007.37
2018-07-11T08:57:33.419Z,1007.37
2018-07-11T08:58:33.939Z,1007.30
2018-07-11T08:59:47.251Z,1007.31
2018-07-11T09:00:49.840Z,1007.30
2018-07-11T09:01:52.601Z,1007.31
2018-07-11T09:03:04.787Z,1007.29
2018-07-11T09:04:07.149Z,1007.28
2018-07-11T09:05:10.535Z,1007.30
2018-07-11T09:06:18.539Z,1007.38
2018-07-11T09:07:26.524Z,1007.39
2018-07-11T09:10:49.005Z,1007.39
2018-07-11T09:11:45.292Z,1007.38
2018-07-11T09:14:04.050Z,1007.42
2018-07-11T09:14:58.016Z,1007.40
2018-07-11T09:16:13.681Z,1007.42
2018-07-11T09:18:20.658Z,1007.39
2018-07-11T09:19:22.003Z,1007.41
2018-07-11T09:20:30.606Z,1007.40
2018-07-11T09:21:37.984Z,1007.40
2018-07-11T09:22:39.687Z,1007.43
2018-07-11T09:25:54.769Z,1007.42
2018-07-11T09:26:55.940Z,1007.39
2018-07-11T09:28:11.202Z,1007.38
2018-07-11T09:29:23.848Z,1007.36
2018-07-11T09:30:20.848Z,1007.32
2018-07-11T09:31:27.268Z,1007.36
2018-07-11T09:32:33.863Z,1007.34
2018-07-11T09:33:48.205Z,1007.33
2018-07-11T09:34:48.417Z,1007.36
2018-07-11T09:35:49.142Z,1007.40
2018-07-11T09:36:52.115Z,1007.33
2018-07-11T09:37:52.122Z,1007.34
2018-07-11T09:39:06.059Z,1007.34
2018-07-11T09:40:09.853Z,1007.34
2018-07-11T09:41:16.616Z,1007.32
2018-07-11T09:42:23.380Z,1007.27
2018-07-11T09:43:25.026Z,1007.27
2018-07-11T09:45:50.751Z,1007.30
2018-07-11T09:46:44.299Z,1007.25
2018-07-11T09:47:53.010Z,1007.22
2018-07-11T09:48:54.245Z,1007.21
2018-07-11T09:49:59.371Z,1007.26
2018-07-11T09:51:16.787Z,1007.26
2018-07-11T09:52:15.925Z,1007.22
2018-07-11T09:53:18.032Z,1007.18
2018-07-11T09:55:30.434Z,1007.09
2018-07-11T09:56:36.481Z,1007.11
2018-07-11T09:57:36.622Z,1007.10
2018-07-11T09:58:54.109Z,1007.04
2018-07-11T09:59:50.845Z,1007.09
2018-07-11T10:00:52.586Z,1007.09
2018-07-11T10:02:02.217Z,1007.08
2018-07-11T10:03:10.858Z,1007.02
2018-07-11T10:04:11.038Z,1006.98
2018-07-11T10:05:38.386Z,1006.96
2018-07-11T10:06:27.130Z,1006.93
2018-07-11T10:07:39.323Z,1006.93
2018-07-11T10:08:40.046Z,1006.96
2018-07-11T10:09:47.116Z,1006.92
2018-07-11T10:10:58.797Z,1006.90
2018-07-11T10:11:53.424Z,1006.88
2018-07-11T10:13:10.863Z,1006.84
2018-07-11T10:14:06.790Z,1006.82
2018-07-11T10:15:00.258Z,1006.86
2018-07-11T10:16:23.612Z,1006.85
2018-07-11T10:17:23.109Z,1006.84
2018-07-11T10:19:37.047Z,1006.82
2018-07-11T10:20:30.812Z,1006.84
2018-07-11T10:22:54.375Z,1006.81
2018-07-11T10:23:56.637Z,1006.77
2018-07-11T10:25:01.350Z,1006.78
2018-07-11T10:26:19.996Z,1006.78
2018-07-11T10:28:11.820Z,1006.76
2018-07-11T10:30:27.875Z,1006.77
2018-07-11T10:31:30.371Z,1006.74
2018-07-11T10:33:45.132Z,1006.74
2018-07-11T10:34:42.682Z,1006.77
2018-07-11T10:35:53.747Z,1006.75
2018-07-11T10:37:11.880Z,1006.73
2018-07-11T10:38:10.879Z,1006.72
2018-07-11T10:39:29.093Z,1006.72
2018-07-11T10:40:21.832Z,1006.67
2018-07-11T10:41:27.367Z,1006.69
2018-07-11T10:43:46.120Z,1006.65
2018-07-11T10:44:49.926Z,1006.62
2018-07-11T10:45:44.872Z,1006.63
2018-07-11T10:47:05.708Z,1006.59
2018-07-11T10:48:00.812Z,1006.59
2018-07-11T10:49:07.762Z,1006.58
2018-07-11T10:50:10.738Z,1006.59
2018-07-11T10:51:22.111Z,1006.60
2018-07-11T10:52:42.188Z,1006.59
2018-07-11T10:53:22.440Z,1006.55
2018-07-11T10:54:41.382Z,1006.59
2018-07-11T10:55:44.566Z,1006.57
2018-07-11T10:56:36.288Z,1006.57
2018-07-11T10:57:39.750Z,1006.53
2018-07-11T10:58:54.814Z,1006.59
2018-07-11T10:59:46.435Z,1006.54
2018-07-11T11:01:22.812Z,1006.52
2018-07-11T11:02:02.834Z,1006.50
2018-07-11T11:03:16.970Z,1006.51
2018-07-11T11:04:17.795Z,1006.55
2018-07-11T11:05:30.602Z,1006.51
2018-07-11T11:06:36.825Z,1006.53
2018-07-11T11:07:36.557Z,1006.49
2018-07-11T11:08:48.646Z,1006.47
2018-07-11T11:09:43.022Z,1006.46
2018-07-11T11:10:59.514Z,1006.45
2018-07-11T11:14:16.842Z,1006.46
2018-07-11T11:15:19.513Z,1006.48
2018-07-11T11:16:17.468Z,1006.44
2018-07-11T11:18:30.798Z,1006.40
2018-07-11T11:20:40.330Z,1006.45
2018-07-11T11:21:49.758Z,1006.45
2018-07-11T11:26:06.475Z,1006.35
2018-07-11T11:27:15.904Z,1006.39
2018-07-11T11:28:18.987Z,1006.34
2018-07-11T11:29:22.164Z,1006.36
2018-07-11T11:30:35.177Z,1006.35
2018-07-11T11:31:30.271Z,1006.34
2018-07-11T11:32:52.291Z,1006.33
2018-07-11T11:34:49.374Z,1006.33
2018-07-11T11:37:07.576Z,1006.28
2018-07-11T11:38:09.889Z,1006.23
2018-07-11T11:39:18.443Z,1006.23
2018-07-11T11:40:19.271Z,1006.23
2018-07-11T11:41:27.017Z,1006.23
2018-07-11T11:42:29.418Z,1006.28
2018-07-11T11:43:39.889Z,1006.25
2018-07-11T11:44:45.409Z,1006.26
2018-07-11T11:45:51.968Z,1006.25
2018-07-11T11:46:50.339Z,1006.25
2018-07-11T11:47:58.740Z,1006.28
2018-07-11T11:48:57.620Z,1006.27
2018-07-11T11:50:20.668Z,1006.24
2018-07-11T11:52:26.212Z,1006.25
2018-07-11T11:54:35.133Z,1006.25
2018-07-11T11:55:34.628Z,1006.26
2018-07-11T11:56:38.424Z,1006.26
2018-07-11T11:57:40.478Z,1006.28
2018-07-11T11:58:51.344Z,1006.26
2018-07-11T12:00:02.098Z,1006.23
2018-07-11T12:01:05.347Z,1006.25
2018-07-11T12:02:09.998Z,1006.21
2018-07-11T12:03:06.936Z,1006.28
2018-07-11T12:04:18.204Z,1006.23
2018-07-11T12:05:23.022Z,1006.29
2018-07-11T12:06:39.975Z,1006.29
2018-07-11T12:07:33.080Z,1006.32
2018-07-11T12:09:54.289Z,1006.45
2018-07-11T12:10:55.215Z,1006.38
2018-07-11T12:11:56.660Z,1006.38
2018-07-11T12:13:09.575Z,1006.35
2018-07-11T12:14:10.260Z,1006.34
2018-07-11T12:16:17.876Z,1006.40
2018-07-11T12:18:43.898Z,1006.45
2018-07-11T12:19:36.900Z,1006.45
2018-07-11T12:20:40.020Z,1006.47
2018-07-11T12:21:39.003Z,1006.48
2018-07-11T12:22:52.936Z,1006.50
2018-07-11T12:23:59.394Z,1006.50
2018-07-11T12:25:01.359Z,1006.45
2018-07-11T12:26:08.319Z,1006.47
2018-07-11T12:27:11.294Z,1006.45
2018-07-11T12:28:19.594Z,1006.48
2018-07-11T12:29:30.661Z,1006.50
2018-07-11T12:30:36.096Z,1006.50
2018-07-11T12:33:41.235Z,1006.49
2018-07-11T12:34:51.585Z,1006.53
2018-07-11T12:36:00.865Z,1006.49
2018-07-11T12:37:04.501Z,1006.47
2018-07-11T12:38:08.194Z,1006.50
2018-07-11T12:39:11.887Z,1006.50
2018-07-11T12:40:24.240Z,1006.52
2018-07-11T12:41:43.033Z,1006.53
2018-07-11T12:42:36.895Z,1006.60
2018-07-11T12:43:38.364Z,1006.59
2018-07-11T12:44:31.692Z,1006.65
2018-07-11T12:45:54.219Z,1006.66
2018-07-11T12:46:47.774Z,1006.69
2018-07-11T12:47:58.381Z,1006.63
2018-07-11T12:49:14.731Z,1006.61
2018-07-11T12:50:13.497Z,1006.65
2018-07-11T12:51:17.908Z,1006.60
2018-07-11T12:52:16.276Z,1006.62
2018-07-11T12:53:39.750Z,1006.57
2018-07-11T12:54:33.911Z,1006.61
2018-07-11T12:55:40.565Z,1006.65
2018-07-11T12:56:39.964Z,1006.60
2018-07-11T12:57:48.261Z,1006.55
2018-07-11T13:00:01.993Z,1006.53
2018-07-11T13:01:02.419Z,1006.54
2018-07-11T13:02:05.288Z,1006.52
2018-07-11T13:03:20.856Z,1006.47
2018-07-11T13:05:26.708Z,1006.48
2018-07-11T13:06:33.266Z,1006.47
2018-07-11T13:07:45.914Z,1006.46
2018-07-11T13:08:51.099Z,1006.44
2018-07-11T13:09:48.256Z,1006.43
2018-07-11T13:10:56.755Z,1006.40
2018-07-11T13:14:13.916Z,1006.37
2018-07-11T13:15:20.017Z,1006.34
2018-07-11T13:16:17.503Z,1006.36
2018-07-11T13:17:28.017Z,1006.36
2018-07-11T13:18:36.743Z,1006.37
2018-07-11T13:19:42.574Z,1006.32
2018-07-11T13:20:46.571Z,1006.33
2018-07-11T13:21:50.166Z,1006.33
2018-07-11T13:26:09.239Z,1006.24
2018-07-11T13:27:25.832Z,1006.27
2018-07-11T13:28:28.195Z,1006.28
2018-07-11T13:29:27.791Z,1006.26
2018-07-11T13:30:43.114Z,1006.29
2018-07-11T13:31:39.278Z,1006.27
2018-07-11T13:32:54.233Z,1006.25
2018-07-11T13:33:53.214Z,1006.25
2018-07-11T13:35:01.210Z,1006.27
2018-07-11T13:36:03.272Z,1006.28
2018-07-11T13:37:05.423Z,1006.27
2018-07-11T13:39:14.240Z,1006.32
2018-07-11T13:41:34.734Z,1006.24
2018-07-11T13:42:33.621Z,1006.25
2018-07-11T13:43:45.500Z,1006.20
2018-07-11T13:44:43.363Z,1006.21
2018-07-11T13:45:54.429Z,1006.20
2018-07-11T13:46:58.217Z,1006.15
2018-07-11T13:48:04.266Z,1006.13
2018-07-11T13:49:03.549Z,1006.13
2018-07-11T13:51:26.821Z,1006.15
2018-07-11T13:52:26.924Z,1006.14
2018-07-11T13:53:32.056Z,1006.16
2018-07-11T13:55:41.692Z,1006.20
2018-07-11T13:57:50.510Z,1006.26
2018-07-11T13:59:13.408Z,1006.32
2018-07-11T14:01:11.626Z,1006.35
2018-07-11T14:03:17.374Z,1006.37
2018-07-11T14:06:33.937Z,1006.44
2018-07-11T14:07:36.805Z,1006.45
2018-07-11T14:08:51.104Z,1006.43
2018-07-11T14:09:49.365Z,1006.42
2018-07-11T14:12:59.316Z,1006.39
2018-07-11T14:14:13.162Z,1006.42
2018-07-11T14:15:19.093Z,1006.36
2018-07-11T14:16:25.550Z,1006.37
2018-07-11T14:17:29.054Z,1006.36
2018-07-11T14:18:37.245Z,1006.33
2018-07-11T14:19:36.016Z,1006.34
2018-07-11T14:20:56.605Z,1006.33
2018-07-11T14:22:54.673Z,1006.27
2018-07-11T14:24:06.286Z,1006.23
2018-07-11T14:27:17.028Z,1006.18
2018-07-11T14:29:33.728Z,1006.17
2018-07-11T14:30:31.894Z,1006.18
2018-07-11T14:31:39.989Z,1006.18
2018-07-11T14:33:46.610Z,1006.21
2018-07-11T14:34:56.087Z,1006.21
2018-07-11T14:36:01.315Z,1006.20
2018-07-11T14:37:07.990Z,1006.21
2018-07-11T14:38:11.877Z,1006.19
2018-07-11T14:41:31.766Z,1006.22
2018-07-11T14:42:38.017Z,1006.19
2018-07-11T14:44:47.779Z,1006.24
2018-07-11T14:45:50.354Z,1006.23
2018-07-11T14:47:13.277Z,1006.25
2018-07-11T14:48:03.853Z,1006.20
2018-07-11T14:50:21.177Z,1006.22
2018-07-11T14:51:24.103Z,1006.18
2018-07-11T14:52:32.153Z,1006.16
2018-07-11T14:53:32.567Z,1006.17
2018-07-11T14:54:38.412Z,1006.12
2018-07-11T14:55:42.918Z,1006.18
2018-07-11T14:56:50.400Z,1006.20
2018-07-11T14:58:01.061Z,1006.19
2018-07-11T14:59:04.033Z,1006.19
2018-07-11T15:00:05.268Z,1006.24
2018-07-11T15:02:16.149Z,1006.23
2018-07-11T15:05:37.950Z,1006.28
2018-07-11T15:07:51.912Z,1006.17
2018-07-11T15:08:57.107Z,1006.20
2018-07-11T15:09:55.821Z,1006.20
2018-07-11T15:11:02.065Z,1006.15
2018-07-11T15:12:09.952Z,1006.14
2018-07-11T15:13:09.951Z,1006.16
2018-07-11T15:14:12.427Z,1006.16
2018-07-11T15:15:32.615Z,1006.17
2018-07-11T15:16:26.273Z,1006.14
2018-07-11T15:17:35.387Z,1006.13
2018-07-11T15:18:34.884Z,1006.13
2018-07-11T15:20:56.709Z,1006.12
2018-07-11T15:22:55.868Z,1006.03
2018-07-11T15:25:09.942Z,1006.07
2018-07-11T15:26:20.398Z,1006.04
2018-07-11T15:27:28.184Z,1006.04
2018-07-11T15:28:26.961Z,1006.02
2018-07-11T15:30:42.437Z,1006.03
2018-07-11T15:31:46.952Z,1006.02
2018-07-11T15:32:54.440Z,1005.99
2018-07-11T15:33:53.621Z,1005.94
2018-07-11T15:36:16.457Z,1005.97
2018-07-11T15:37:17.601Z,1006.02
2018-07-11T15:38:26.723Z,1006.03
2018-07-11T15:40:33.499Z,1006.01
2018-07-11T15:41:34.218Z,1006.02
2018-07-11T15:42:50.402Z,1006.01
2018-07-11T15:43:51.175Z,1005.99
2018-07-11T15:44:49.905Z,1006.01
2018-07-11T15:46:59.443Z,1006.01
2018-07-11T15:48:11.943Z,1006.02
2018-07-11T15:49:13.493Z,1006.00
2018-07-11T15:50:19.225Z,1006.01
2018-07-11T15:51:23.226Z,1006.00
2018-07-11T15:52:30.505Z,1006.00